Time;durP1;ratioP1;P1;durP2;ratioP2;P2;SDS_P1;SDS_P2;PMS_P1;PMS_P2;Temp;Humidity;BMP_temperature;BMP_pressure;BME280_temperature;BME280_humidity;BME280_pressure;Samples;Min_cycle;Max_cycle;Signal;HPM_P1;HPM_P2
2021/10/17 00:02:00;;;;;;;24.75;22.95;;;;;;;;;;5094067;28;20193;-87
2021/10/17 00:04:27;;;;;;;24.75;22.95;;;;;;;;;;5094278;28;20188;-86
2021/10/17 00:06:56;;;;;;;26.63;24.67;;;;;;;;;;5094318;28;20214;-87
2021/10/17 00:09:24;;;;;;;24.77;23.17;;;;;;;;;;5094185;28;20192;-85
2021/10/17 00:11:51;;;;;;;24.95;23.25;;;;;;;;;;5094084;28;20679;-86
2021/10/17 00:14:19;;;;;;;25.88;24.05;;;;;;;;;;5094239;28;20250;-86
2021/10/17 00:16:46;;;;;;;25.70;23.65;;;;;;;;;;5094245;28;20194;-86
2021/10/17 00:19:14;;;;;;;24.70;22.75;;;;;;;;;;5094144;28;20207;-87
2021/10/17 00:21:41;;;;;;;25.60;23.60;;;;;;;;;;5094397;28;20613;-86
2021/10/17 00:24:11;;;;;;;25.05;22.98;;;;;;;;;;5094135;28;20198;-86
2021/10/17 00:26:39;;;;;;;25.35;23.40;;;;;;;;;;5093739;28;20230;-86
2021/10/17 00:29:06;;;;;;;24.92;22.80;;;;;;;;;;5093801;28;20198;-86
2021/10/17 00:31:34;;;;;;;25.67;23.70;;;;;;;;;;5094040;28;20212;-86
2021/10/17 00:34:02;;;;;;;24.10;22.38;;;;;;;;;;5093015;28;20192;-86
2021/10/17 00:36:29;;;;;;;25.67;23.08;;;;;;;;;;5094361;28;20195;-86
2021/10/17 00:38:57;;;;;;;25.85;24.05;;;;;;;;;;5093393;28;20649;-86
2021/10/17 00:41:26;;;;;;;24.77;22.98;;;;;;;;;;5093911;28;20204;-86
2021/10/17 00:43:53;;;;;;;25.20;23.08;;;;;;;;;;5097624;28;20187;-86
2021/10/17 00:46:21;;;;;;;22.85;21.15;;;;;;;;;;5098238;28;20198;-86
2021/10/17 00:48:49;;;;;;;24.30;22.35;;;;;;;;;;5097862;28;20216;-86
2021/10/17 00:51:17;;;;;;;24.98;22.67;;;;;;;;;;5098085;28;20237;-85
2021/10/17 00:53:45;;;;;;;24.00;22.20;;;;;;;;;;5097489;28;20191;-86
2021/10/17 00:56:12;;;;;;;23.85;21.90;;;;;;;;;;5097708;28;20197;-86
2021/10/17 00:58:41;;;;;;;25.60;23.17;;;;;;;;;;5097478;28;20242;-86
2021/10/17 01:01:09;;;;;;;24.52;22.42;;;;;;;;;;5097377;28;20192;-86
2021/10/17 01:03:36;;;;;;;24.00;22.00;;;;;;;;;;5097449;28;20184;-86
2021/10/17 01:06:08;;;;;;;24.13;22.20;;;;;;;;;;5097340;28;20195;-86
2021/10/17 01:08:36;;;;;;;23.40;21.58;;;;;;;;;;5095980;28;20212;-86
2021/10/17 01:11:03;;;;;;;23.75;21.92;;;;;;;;;;5097180;28;20193;-86
2021/10/17 01:13:31;;;;;;;24.58;22.48;;;;;;;;;;5096545;28;20228;-86
2021/10/17 01:16:00;;;;;;;23.63;21.80;;;;;;;;;;5097310;28;20221;-86
2021/10/17 01:18:27;;;;;;;23.67;21.70;;;;;;;;;;5097195;28;20204;-85
2021/10/17 01:20:56;;;;;;;24.15;21.90;;;;;;;;;;5097305;28;20188;-86
2021/10/17 01:23:24;;;;;;;23.35;21.50;;;;;;;;;;5096224;28;20200;-86
2021/10/17 01:25:52;;;;;;;24.52;22.83;;;;;;;;;;5096865;28;20647;-86
2021/10/17 01:28:19;;;;;;;23.88;22.08;;;;;;;;;;5097218;28;20191;-86
2021/10/17 01:30:46;;;;;;;24.75;22.50;;;;;;;;;;5096904;28;20548;-86
2021/10/17 01:33:14;;;;;;;25.60;23.38;;;;;;;;;;5096736;28;20225;-86
2021/10/17 01:35:41;;;;;;;24.90;22.77;;;;;;;;;;5097155;28;20279;-86
2021/10/17 01:38:11;;;;;;;24.30;22.50;;;;;;;;;;5096943;28;20630;-86
2021/10/17 01:40:38;;;;;;;25.27;22.88;;;;;;;;;;5096868;28;20233;-86
2021/10/17 01:43:07;;;;;;;24.30;22.35;;;;;;;;;;5096948;28;20964;-86
2021/10/17 01:45:34;;;;;;;25.45;22.88;;;;;;;;;;5095715;28;20198;-86
2021/10/17 01:48:02;;;;;;;23.25;21.50;;;;;;;;;;5096788;28;20204;-86
2021/10/17 01:50:30;;;;;;;24.75;22.85;;;;;;;;;;5095436;28;20228;-86
2021/10/17 01:52:57;;;;;;;24.17;22.17;;;;;;;;;;5096513;28;20228;-86
2021/10/17 01:55:26;;;;;;;24.23;22.25;;;;;;;;;;5096067;28;20211;-85
2021/10/17 01:57:53;;;;;;;24.30;22.10;;;;;;;;;;5096507;28;20241;-86
2021/10/17 02:00:21;;;;;;;23.10;21.40;;;;;;;;;;5096396;28;20213;-86
2021/10/17 02:02:48;;;;;;;25.02;22.63;;;;;;;;;;5096574;28;20189;-86
2021/10/17 02:05:16;;;;;;;24.65;22.25;;;;;;;;;;5096780;28;20194;-86
2021/10/17 02:07:43;;;;;;;24.00;22.17;;;;;;;;;;5096348;28;20193;-86
2021/10/17 02:10:11;;;;;;;22.73;21.05;;;;;;;;;;5096493;28;20626;-86
2021/10/17 02:12:40;;;;;;;24.02;22.00;;;;;;;;;;5095804;28;20311;-86
2021/10/17 02:15:08;;;;;;;23.13;21.52;;;;;;;;;;5095846;28;20727;-85
2021/10/17 02:17:35;;;;;;;23.27;21.50;;;;;;;;;;5096173;28;20583;-85
2021/10/17 02:20:02;;;;;;;24.92;22.48;;;;;;;;;;5095644;28;20189;-86
2021/10/17 02:22:30;;;;;;;23.60;21.55;;;;;;;;;;5096153;28;20185;-86
2021/10/17 02:24:57;;;;;;;24.40;22.15;;;;;;;;;;5095786;28;20214;-86
2021/10/17 02:27:25;;;;;;;24.27;22.52;;;;;;;;;;5096087;28;20187;-86
2021/10/17 02:29:54;;;;;;;23.92;21.98;;;;;;;;;;5095878;28;20612;-86
2021/10/17 02:32:21;;;;;;;24.55;22.45;;;;;;;;;;5095848;28;20216;-86
2021/10/17 02:34:48;;;;;;;24.60;22.30;;;;;;;;;;5095750;28;20286;-86
2021/10/17 02:37:16;;;;;;;23.38;21.60;;;;;;;;;;5095528;28;20188;-86
2021/10/17 02:39:43;;;;;;;24.70;22.70;;;;;;;;;;5095881;28;20199;-86
2021/10/17 02:42:11;;;;;;;23.92;22.00;;;;;;;;;;5094435;28;20196;-87
2021/10/17 02:44:38;;;;;;;23.92;22.13;;;;;;;;;;5095256;28;20226;-86
2021/10/17 02:47:07;;;;;;;22.88;21.25;;;;;;;;;;5095438;28;20196;-86
2021/10/17 02:49:35;;;;;;;24.23;22.48;;;;;;;;;;5095951;28;20562;-86
2021/10/17 02:52:02;;;;;;;24.23;22.23;;;;;;;;;;5094027;28;20771;-85
2021/10/17 02:54:30;;;;;;;24.02;22.05;;;;;;;;;;5095475;28;20634;-86
2021/10/17 02:56:57;;;;;;;24.52;22.65;;;;;;;;;;5095096;28;20235;-86
2021/10/17 02:59:25;;;;;;;23.90;22.00;;;;;;;;;;5095050;28;20195;-85
2021/10/17 03:01:53;;;;;;;24.45;22.65;;;;;;;;;;5095295;28;20200;-86
2021/10/17 03:04:22;;;;;;;26.05;23.83;;;;;;;;;;5093760;28;20262;-86
2021/10/17 03:06:49;;;;;;;23.92;22.20;;;;;;;;;;5094348;28;20216;-86
2021/10/17 03:09:16;;;;;;;25.50;23.17;;;;;;;;;;5094933;28;20192;-86
2021/10/17 03:11:44;;;;;;;23.92;22.15;;;;;;;;;;5095082;28;20191;-85
2021/10/17 03:14:11;;;;;;;23.90;22.20;;;;;;;;;;5093544;28;20735;-86
2021/10/17 03:16:41;;;;;;;23.67;21.98;;;;;;;;;;5094931;28;20244;-86
2021/10/17 03:19:09;;;;;;;24.63;22.67;;;;;;;;;;5095122;28;20207;-86
2021/10/17 03:21:37;;;;;;;24.33;22.33;;;;;;;;;;5095007;28;20275;-86
2021/10/17 03:24:05;;;;;;;25.25;23.35;;;;;;;;;;5093697;28;20253;-86
2021/10/17 03:26:33;;;;;;;24.75;22.55;;;;;;;;;;5093236;28;20255;-86
2021/10/17 03:29:00;;;;;;;24.17;22.25;;;;;;;;;;5094573;28;20196;-86
2021/10/17 03:31:27;;;;;;;25.20;22.90;;;;;;;;;;5094807;28;20197;-86
2021/10/17 03:33:55;;;;;;;26.65;24.20;;;;;;;;;;5093733;28;20283;-86
2021/10/17 03:36:22;;;;;;;24.25;22.40;;;;;;;;;;5094482;28;20204;-86
2021/10/17 03:38:51;;;;;;;24.40;22.45;;;;;;;;;;5094614;28;20212;-86
2021/10/17 03:41:19;;;;;;;23.70;21.75;;;;;;;;;;5094654;28;20200;-86
2021/10/17 03:43:46;;;;;;;26.33;24.15;;;;;;;;;;5094490;28;20193;-86
2021/10/17 03:46:15;;;;;;;24.88;22.95;;;;;;;;;;5093274;28;20200;-85
2021/10/17 03:48:42;;;;;;;24.27;22.13;;;;;;;;;;5093993;28;20232;-85
2021/10/17 03:51:10;;;;;;;24.88;22.70;;;;;;;;;;5094412;28;20205;-86
2021/10/17 03:53:37;;;;;;;25.00;22.63;;;;;;;;;;5094459;28;20557;-86
2021/10/17 03:56:06;;;;;;;24.52;22.52;;;;;;;;;;5094727;28;20196;-85
2021/10/17 03:58:34;;;;;;;24.63;22.80;;;;;;;;;;5094153;28;20228;-86
2021/10/17 04:01:02;;;;;;;25.23;23.33;;;;;;;;;;5094411;28;20197;-86
2021/10/17 04:03:29;;;;;;;22.85;21.10;;;;;;;;;;5094622;28;20581;-86
2021/10/17 04:05:57;;;;;;;25.60;23.42;;;;;;;;;;5093942;28;20650;-86
2021/10/17 04:08:24;;;;;;;24.10;22.40;;;;;;;;;;5094252;28;20200;-86
2021/10/17 04:10:51;;;;;;;23.45;21.95;;;;;;;;;;5094131;28;20199;-85
2021/10/17 04:13:20;;;;;;;27.98;25.33;;;;;;;;;;5094075;28;20260;-86
2021/10/17 04:15:47;;;;;;;25.52;23.50;;;;;;;;;;5093171;28;20206;-86
2021/10/17 04:18:15;;;;;;;25.17;23.13;;;;;;;;;;5094023;28;20596;-86
2021/10/17 04:20:42;;;;;;;25.75;23.27;;;;;;;;;;5093450;28;20275;-86
2021/10/17 04:23:10;;;;;;;26.70;24.40;;;;;;;;;;5094377;28;20186;-86
2021/10/17 04:25:37;;;;;;;24.85;22.90;;;;;;;;;;5094081;28;20197;-86
2021/10/17 04:28:05;;;;;;;25.67;23.58;;;;;;;;;;5093821;28;20643;-86
2021/10/17 04:30:34;;;;;;;26.25;23.95;;;;;;;;;;5093818;28;20196;-86
2021/10/17 04:33:02;;;;;;;24.90;23.10;;;;;;;;;;5093885;28;20228;-86
2021/10/17 04:35:30;;;;;;;25.77;23.77;;;;;;;;;;5093668;28;20245;-86
2021/10/17 04:38:02;;;;;;;26.73;24.25;;;;;;;;;;5092776;28;20254;-86
2021/10/17 04:40:29;;;;;;;25.77;23.80;;;;;;;;;;5094059;28;20196;-87
2021/10/17 04:42:57;;;;;;;26.85;24.58;;;;;;;;;;5093903;28;20205;-86
2021/10/17 04:45:24;;;;;;;25.77;23.70;;;;;;;;;;5094200;28;20192;-86
2021/10/17 04:47:53;;;;;;;26.00;23.70;;;;;;;;;;5093922;28;20624;-86
2021/10/17 04:50:21;;;;;;;26.85;24.38;;;;;;;;;;5093947;28;20276;-86
2021/10/17 04:52:48;;;;;;;26.50;24.20;;;;;;;;;;5092409;28;20283;-86
2021/10/17 04:55:16;;;;;;;24.50;22.75;;;;;;;;;;5094013;28;20188;-86
2021/10/17 04:57:43;;;;;;;25.58;23.85;;;;;;;;;;5093516;28;20236;-86
2021/10/17 05:00:11;;;;;;;26.48;24.35;;;;;;;;;;5093678;28;20193;-86
2021/10/17 05:02:38;;;;;;;26.05;24.02;;;;;;;;;;5092385;28;20205;-86
2021/10/17 05:05:09;;;;;;;25.45;23.48;;;;;;;;;;5092637;28;20522;-86
2021/10/17 05:07:36;;;;;;;27.20;24.77;;;;;;;;;;5093655;28;20188;-86
2021/10/17 05:10:04;;;;;;;26.27;23.63;;;;;;;;;;5092728;28;20252;-86
2021/10/17 05:12:31;;;;;;;24.63;22.73;;;;;;;;;;5092101;28;20210;-84
2021/10/17 05:14:59;;;;;;;26.27;23.98;;;;;;;;;;5093549;28;20235;-86
2021/10/17 05:17:26;;;;;;;26.23;24.15;;;;;;;;;;5093219;28;20280;-86
2021/10/17 05:19:54;;;;;;;25.35;23.42;;;;;;;;;;5092183;28;20205;-86
2021/10/17 05:22:23;;;;;;;25.77;23.38;;;;;;;;;;5093577;28;20628;-86
2021/10/17 05:24:50;;;;;;;26.65;24.13;;;;;;;;;;5093808;28;20554;-86
2021/10/17 05:27:17;;;;;;;25.60;23.30;;;;;;;;;;5093206;28;20190;-86
2021/10/17 05:29:45;;;;;;;26.98;24.58;;;;;;;;;;5095141;28;20193;-86
2021/10/17 05:32:12;;;;;;;27.95;24.95;;;;;;;;;;5097167;28;20204;-86
2021/10/17 05:34:39;;;;;;;26.48;24.25;;;;;;;;;;5096929;28;20220;-86
2021/10/17 05:37:07;;;;;;;26.60;24.52;;;;;;;;;;5096820;28;20192;-85
2021/10/17 05:39:36;;;;;;;27.13;24.73;;;;;;;;;;5096768;28;20191;-86
2021/10/17 05:42:04;;;;;;;26.73;24.75;;;;;;;;;;5096841;28;20200;-85
2021/10/17 05:44:32;;;;;;;28.00;25.60;;;;;;;;;;5097171;28;20248;-86
2021/10/17 05:46:59;;;;;;;25.98;23.85;;;;;;;;;;5096754;28;20191;-85
2021/10/17 05:49:27;;;;;;;26.67;24.73;;;;;;;;;;5096851;28;20190;-86
2021/10/17 05:51:54;;;;;;;27.63;25.35;;;;;;;;;;5096617;28;20194;-86
2021/10/17 05:54:22;;;;;;;26.75;24.25;;;;;;;;;;5096702;28;20223;-86
2021/10/17 05:56:51;;;;;;;24.92;23.20;;;;;;;;;;5096049;28;20237;-86
2021/10/17 05:59:18;;;;;;;26.65;24.10;;;;;;;;;;5096190;28;20185;-85
2021/10/17 06:01:46;;;;;;;25.10;23.38;;;;;;;;;;5095587;28;20192;-85
2021/10/17 06:04:13;;;;;;;26.58;24.40;;;;;;;;;;5096538;28;20193;-85
2021/10/17 06:06:41;;;;;;;26.50;24.00;;;;;;;;;;5096504;28;20283;-86
2021/10/17 06:09:09;;;;;;;27.85;25.38;;;;;;;;;;5096382;28;20262;-86
2021/10/17 06:11:37;;;;;;;27.42;25.30;;;;;;;;;;5096023;28;20654;-86
2021/10/17 06:14:07;;;;;;;26.65;24.70;;;;;;;;;;5095739;28;20331;-87
2021/10/17 06:16:34;;;;;;;26.70;24.40;;;;;;;;;;5096235;28;20215;-87
2021/10/17 06:19:01;;;;;;;25.90;23.95;;;;;;;;;;5095861;28;20426;-86
2021/10/17 06:21:29;;;;;;;26.38;24.27;;;;;;;;;;5096069;28;20619;-86
2021/10/17 06:23:56;;;;;;;26.75;24.10;;;;;;;;;;5095580;28;20315;-87
2021/10/17 06:26:24;;;;;;;25.77;23.98;;;;;;;;;;5096052;28;20647;-87
2021/10/17 06:28:51;;;;;;;27.30;25.20;;;;;;;;;;5096060;28;20194;-86
2021/10/17 06:31:20;;;;;;;27.05;24.83;;;;;;;;;;5096288;28;20193;-86
2021/10/17 06:33:47;;;;;;;26.52;24.63;;;;;;;;;;5094446;28;20594;-83
2021/10/17 06:36:15;;;;;;;27.20;24.90;;;;;;;;;;5094140;28;20188;-83
2021/10/17 06:38:42;;;;;;;26.40;24.20;;;;;;;;;;5095208;28;20187;-84
2021/10/17 06:41:10;;;;;;;27.73;25.52;;;;;;;;;;5094017;28;20655;-87
2021/10/17 06:43:37;;;;;;;26.50;24.65;;;;;;;;;;5095675;28;20201;-86
2021/10/17 06:46:05;;;;;;;26.20;23.95;;;;;;;;;;5095974;28;20200;-87
2021/10/17 06:48:35;;;;;;;26.45;24.23;;;;;;;;;;5095169;28;20179;-83
2021/10/17 06:51:02;;;;;;;26.33;23.90;;;;;;;;;;5094871;28;20190;-82
2021/10/17 06:53:30;;;;;;;26.58;24.58;;;;;;;;;;5094434;28;20622;-84
2021/10/17 06:55:57;;;;;;;25.15;23.25;;;;;;;;;;5094488;28;20216;-84
2021/10/17 06:58:25;;;;;;;27.17;24.98;;;;;;;;;;5094294;28;20237;-84
2021/10/17 07:00:52;;;;;;;27.05;25.23;;;;;;;;;;5093660;28;20205;-83
2021/10/17 07:03:19;;;;;;;27.08;24.80;;;;;;;;;;5094626;28;20195;-83
2021/10/17 07:05:48;;;;;;;26.25;24.05;;;;;;;;;;5094235;28;20642;-83
2021/10/17 07:08:16;;;;;;;27.17;25.23;;;;;;;;;;5094516;28;20195;-83
2021/10/17 07:10:43;;;;;;;26.58;24.65;;;;;;;;;;5093420;28;20534;-84
2021/10/17 07:13:11;;;;;;;27.05;24.70;;;;;;;;;;5094022;28;20650;-83
2021/10/17 07:15:38;;;;;;;27.52;25.08;;;;;;;;;;5093998;28;20189;-83
2021/10/17 07:18:05;;;;;;;27.40;25.00;;;;;;;;;;5092969;28;20250;-83
2021/10/17 07:20:33;;;;;;;27.20;24.83;;;;;;;;;;5094128;28;20194;-83
2021/10/17 07:23:01;;;;;;;28.67;26.38;;;;;;;;;;5093977;28;20194;-83
2021/10/17 07:25:29;;;;;;;30.08;27.58;;;;;;;;;;5093757;28;20651;-83
2021/10/17 07:27:56;;;;;;;28.02;25.92;;;;;;;;;;5093962;28;20202;-83
2021/10/17 07:30:24;;;;;;;28.02;25.80;;;;;;;;;;5093730;28;20657;-83
2021/10/17 07:32:51;;;;;;;28.17;25.48;;;;;;;;;;5094079;28;20553;-83
2021/10/17 07:35:19;;;;;;;28.98;26.38;;;;;;;;;;5093607;28;20220;-83
2021/10/17 07:37:46;;;;;;;28.65;26.02;;;;;;;;;;5093940;28;20208;-83
2021/10/17 07:40:15;;;;;;;31.20;28.55;;;;;;;;;;5093509;28;20204;-83
2021/10/17 07:42:42;;;;;;;29.27;26.47;;;;;;;;;;5093443;28;20198;-83
2021/10/17 07:45:10;;;;;;;28.30;26.30;;;;;;;;;;5093849;28;20492;-84
2021/10/17 07:47:38;;;;;;;28.52;26.50;;;;;;;;;;5093424;28;20198;-84
2021/10/17 07:50:06;;;;;;;29.80;27.35;;;;;;;;;;5093434;28;20183;-84
2021/10/17 07:52:33;;;;;;;29.48;26.95;;;;;;;;;;5092794;28;20193;-82
2021/10/17 07:55:01;;;;;;;28.75;26.70;;;;;;;;;;5075526;28;20234;-83
2021/10/17 07:57:30;;;;;;;31.95;28.85;;;;;;;;;;5092169;28;20234;-83
2021/10/17 07:59:57;;;;;;;28.55;26.38;;;;;;;;;;5093355;28;20198;-83
2021/10/17 08:02:25;;;;;;;28.67;26.20;;;;;;;;;;5093435;28;20191;-83
2021/10/17 08:04:52;;;;;;;30.33;27.53;;;;;;;;;;5093179;28;20415;-83
2021/10/17 08:07:20;;;;;;;27.80;25.45;;;;;;;;;;5093536;28;20431;-83
2021/10/17 08:09:47;;;;;;;29.57;26.70;;;;;;;;;;5093086;28;20209;-83
2021/10/17 08:12:15;;;;;;;29.43;27.20;;;;;;;;;;5093474;28;20410;-84
2021/10/17 08:14:43;;;;;;;28.50;26.08;;;;;;;;;;5092430;28;20499;-84
2021/10/17 08:17:11;;;;;;;29.40;26.90;;;;;;;;;;5093733;28;20190;-83
2021/10/17 08:19:38;;;;;;;28.63;26.53;;;;;;;;;;5092324;28;20446;-84
2021/10/17 08:22:06;;;;;;;31.23;28.90;;;;;;;;;;5093478;28;20422;-83
2021/10/17 08:24:33;;;;;;;32.93;30.33;;;;;;;;;;5093420;28;20415;-84
2021/10/17 08:27:01;;;;;;;31.85;29.25;;;;;;;;;;5091900;28;21003;-84
2021/10/17 08:29:28;;;;;;;31.93;29.50;;;;;;;;;;5091773;28;20255;-84
2021/10/17 08:31:57;;;;;;;29.30;26.85;;;;;;;;;;5091460;28;20447;-83
2021/10/17 08:34:24;;;;;;;30.47;28.07;;;;;;;;;;5093515;28;20236;-84
2021/10/17 08:36:52;;;;;;;30.08;27.70;;;;;;;;;;5093397;28;20417;-84
2021/10/17 08:39:19;;;;;;;28.05;25.92;;;;;;;;;;5093095;28;20185;-83
2021/10/17 08:41:47;;;;;;;28.60;26.53;;;;;;;;;;5091717;28;20207;-83
2021/10/17 08:44:15;;;;;;;28.93;26.63;;;;;;;;;;5092913;28;20977;-83
2021/10/17 08:46:43;;;;;;;29.47;27.20;;;;;;;;;;5092994;28;20436;-83
2021/10/17 08:49:13;;;;;;;30.03;27.53;;;;;;;;;;5093237;28;20753;-84
2021/10/17 08:51:40;;;;;;;26.98;25.25;;;;;;;;;;5092808;28;20904;-83
2021/10/17 08:54:08;;;;;;;27.60;25.20;;;;;;;;;;5092593;28;20229;-83
2021/10/17 08:56:35;;;;;;;28.43;26.23;;;;;;;;;;5092710;28;20408;-84
2021/10/17 08:59:03;;;;;;;29.43;27.03;;;;;;;;;;5092911;28;20440;-83
2021/10/17 09:01:34;;;;;;;27.67;25.55;;;;;;;;;;5092762;28;20447;-83
2021/10/17 09:04:02;;;;;;;28.30;25.70;;;;;;;;;;5095529;28;20230;-83
2021/10/17 09:06:37;;;;;;;27.10;25.20;;;;;;;;;;5096476;28;20535;-84
2021/10/17 09:09:09;;;;;;;27.50;25.50;;;;;;;;;;5096558;28;20488;-84
2021/10/17 09:11:37;;;;;;;27.93;25.90;;;;;;;;;;5096600;28;20422;-83
2021/10/17 09:14:05;;;;;;;29.27;26.97;;;;;;;;;;5096468;28;20484;-83
2021/10/17 09:16:35;;;;;;;29.30;26.50;;;;;;;;;;5096452;28;20418;-83
2021/10/17 09:19:07;;;;;;;27.33;25.20;;;;;;;;;;5096779;28;20426;-83
2021/10/17 09:21:35;;;;;;;30.00;27.57;;;;;;;;;;5096138;28;20912;-84
2021/10/17 09:24:03;;;;;;;29.42;26.83;;;;;;;;;;5096632;28;20460;-83
2021/10/17 09:26:32;;;;;;;28.77;26.40;;;;;;;;;;5095807;28;20197;-84
2021/10/17 09:29:00;;;;;;;29.07;26.87;;;;;;;;;;5096478;28;20406;-83
2021/10/17 09:31:27;;;;;;;28.40;26.00;;;;;;;;;;5096323;28;20440;-83
2021/10/17 09:33:56;;;;;;;28.67;26.50;;;;;;;;;;5096057;28;20432;-84
2021/10/17 09:36:27;;;;;;;28.47;26.33;;;;;;;;;;5095774;28;20494;-83
2021/10/17 09:39:03;;;;;;;27.90;25.90;;;;;;;;;;5095945;28;20761;-83
2021/10/17 09:41:34;;;;;;;27.20;25.30;;;;;;;;;;5095974;28;20419;-84
2021/10/17 09:44:02;;;;;;;28.63;26.33;;;;;;;;;;5096184;28;20816;-83
2021/10/17 09:46:29;;;;;;;31.37;28.33;;;;;;;;;;5095779;28;20931;-84
2021/10/17 09:48:57;;;;;;;29.23;26.73;;;;;;;;;;5096117;28;20419;-83
2021/10/17 09:51:26;;;;;;;29.80;27.57;;;;;;;;;;5095827;28;20418;-83
2021/10/17 09:53:55;;;;;;;28.87;26.57;;;;;;;;;;5095725;28;20439;-83
2021/10/17 09:56:29;;;;;;;28.80;26.63;;;;;;;;;;5095421;28;20838;-83
2021/10/17 09:58:56;;;;;;;29.13;26.47;;;;;;;;;;5095753;28;20414;-83
2021/10/17 10:01:25;;;;;;;28.20;26.00;;;;;;;;;;5094500;28;20797;-83
2021/10/17 10:03:53;;;;;;;28.27;25.80;;;;;;;;;;5095515;28;20411;-84
2021/10/17 10:06:21;;;;;;;27.30;25.27;;;;;;;;;;5095665;28;20748;-83
2021/10/17 10:08:49;;;;;;;28.63;25.97;;;;;;;;;;5095405;28;20411;-83
2021/10/17 10:11:22;;;;;;;28.27;26.10;;;;;;;;;;5095566;28;20411;-83
2021/10/17 10:13:52;;;;;;;26.90;25.07;;;;;;;;;;5095100;28;20488;-83
2021/10/17 10:16:20;;;;;;;28.53;25.70;;;;;;;;;;5094693;28;20494;-83
2021/10/17 10:18:47;;;;;;;30.20;27.60;;;;;;;;;;5095100;28;20434;-83
2021/10/17 10:21:15;;;;;;;29.07;26.93;;;;;;;;;;5095434;28;20448;-84
2021/10/17 10:23:43;;;;;;;28.53;26.23;;;;;;;;;;5095104;28;20411;-84
2021/10/17 10:26:11;;;;;;;27.30;25.20;;;;;;;;;;5094081;28;20440;-84
2021/10/17 10:28:39;;;;;;;29.17;27.07;;;;;;;;;;5095117;28;20506;-84
2021/10/17 10:31:08;;;;;;;32.67;29.83;;;;;;;;;;5095288;28;20448;-83
2021/10/17 10:33:42;;;;;;;27.93;25.70;;;;;;;;;;5094870;28;20425;-84
2021/10/17 10:36:13;;;;;;;28.80;26.13;;;;;;;;;;5094901;28;20497;-84
2021/10/17 10:39:07;;;;;;;29.53;27.10;;;;;;;;;;5095139;28;20759;-83
2021/10/17 10:41:45;;;;;;;28.30;26.00;;;;;;;;;;5032515;28;20433;-83
2021/10/17 10:44:13;;;;;;;26.87;24.87;;;;;;;;;;5032680;28;20445;-83
2021/10/17 10:46:42;;;;;;;28.87;26.27;;;;;;;;;;5032545;28;20406;-84
2021/10/17 10:49:10;;;;;;;27.50;25.30;;;;;;;;;;5032205;28;20417;-84
2021/10/17 10:51:39;;;;;;;27.63;25.07;;;;;;;;;;5015759;28;20493;-84
2021/10/17 10:54:06;;;;;;;33.20;30.40;;;;;;;;;;5032132;28;20455;-83
2021/10/17 10:56:48;;;;;;;27.67;25.57;;;;;;;;;;5031989;28;20410;-84
2021/10/17 10:59:17;;;;;;;28.90;26.60;;;;;;;;;;5032034;28;21297;-84
2021/10/17 11:02:01;;;;;;;26.70;24.77;;;;;;;;;;5031963;28;20490;-83
2021/10/17 11:04:48;;;;;;;27.60;25.60;;;;;;;;;;5032179;28;20462;-83
2021/10/17 11:07:18;;;;;;;26.47;24.27;;;;;;;;;;5031860;28;20406;-83
2021/10/17 11:09:46;;;;;;;27.47;25.23;;;;;;;;;;5031883;28;20415;-83
2021/10/17 11:12:40;;;;;;;27.57;25.47;;;;;;;;;;5031922;28;20414;-83
2021/10/17 11:15:08;;;;;;;28.73;26.63;;;;;;;;;;5014991;28;20492;-83
2021/10/17 11:17:37;;;;;;;27.70;25.53;;;;;;;;;;5068997;28;20946;-83
2021/10/17 11:20:05;;;;;;;26.77;24.70;;;;;;;;;;5092785;28;20499;-84
2021/10/17 11:22:35;;;;;;;28.30;26.00;;;;;;;;;;5094307;28;20419;-84
2021/10/17 11:25:03;;;;;;;27.40;25.40;;;;;;;;;;5094212;28;20444;-83
2021/10/17 11:27:30;;;;;;;27.53;25.53;;;;;;;;;;5092880;28;20806;-84
2021/10/17 11:29:58;;;;;;;27.20;24.90;;;;;;;;;;5092792;28;20407;-84
2021/10/17 11:32:25;;;;;;;26.53;24.60;;;;;;;;;;5093854;28;20518;-83
2021/10/17 11:34:58;;;;;;;27.03;25.03;;;;;;;;;;5094002;28;20481;-83
2021/10/17 11:37:26;;;;;;;28.63;26.60;;;;;;;;;;5093849;28;20997;-83
2021/10/17 11:39:54;;;;;;;27.13;25.13;;;;;;;;;;5093520;28;20423;-83
2021/10/17 11:42:21;;;;;;;27.53;25.53;;;;;;;;;;5093550;28;20403;-84
2021/10/17 11:44:48;;;;;;;27.47;25.13;;;;;;;;;;5093677;28;20436;-83
2021/10/17 11:47:16;;;;;;;29.00;26.70;;;;;;;;;;5093484;28;20915;-83
2021/10/17 11:49:44;;;;;;;27.83;25.33;;;;;;;;;;5093620;28;20817;-82
2021/10/17 11:52:14;;;;;;;27.90;25.70;;;;;;;;;;5093527;28;20418;-84
2021/10/17 11:54:42;;;;;;;27.03;25.20;;;;;;;;;;5093755;28;21171;-84
2021/10/17 11:57:09;;;;;;;28.00;25.70;;;;;;;;;;5093144;28;20500;-83
2021/10/17 11:59:37;;;;;;;29.17;26.27;;;;;;;;;;5093541;28;20478;-83
2021/10/17 12:02:24;;;;;;;28.83;26.10;;;;;;;;;;5093265;28;20893;-83
2021/10/17 12:04:51;;;;;;;28.03;25.73;;;;;;;;;;5093145;28;20456;-83
2021/10/17 12:07:22;;;;;;;28.10;25.87;;;;;;;;;;5093522;28;20416;-83
2021/10/17 12:09:49;;;;;;;28.30;25.93;;;;;;;;;;5092139;28;20415;-83
2021/10/17 12:12:22;;;;;;;27.50;25.53;;;;;;;;;;5092440;28;20419;-84
2021/10/17 12:15:01;;;;;;;27.27;24.60;;;;;;;;;;5093252;28;20466;-83
2021/10/17 12:17:28;;;;;;;26.60;24.67;;;;;;;;;;5091920;28;20799;-83
2021/10/17 12:20:02;;;;;;;27.03;24.93;;;;;;;;;;5093261;28;20910;-83
2021/10/17 12:22:31;;;;;;;28.67;26.43;;;;;;;;;;5092149;28;20538;-84
2021/10/17 12:24:59;;;;;;;26.90;24.97;;;;;;;;;;5093352;28;20436;-84
2021/10/17 12:27:33;;;;;;;29.63;26.83;;;;;;;;;;5091739;28;20444;-83
2021/10/17 12:30:08;;;;;;;28.43;25.97;;;;;;;;;;5093034;28;20440;-83
2021/10/17 12:32:42;;;;;;;27.30;25.30;;;;;;;;;;5093309;28;20445;-84
2021/10/17 12:35:15;;;;;;;27.10;25.00;;;;;;;;;;5091763;28;20454;-83
2021/10/17 12:37:44;;;;;;;27.50;24.70;;;;;;;;;;5093615;28;20416;-83
2021/10/17 12:40:12;;;;;;;26.40;24.30;;;;;;;;;;5097617;28;20440;-83
2021/10/17 12:42:52;;;;;;;28.80;26.60;;;;;;;;;;5097215;28;20754;-83
2021/10/17 12:45:19;;;;;;;28.13;25.73;;;;;;;;;;5097238;28;20447;-83
2021/10/17 12:47:53;;;;;;;28.40;25.80;;;;;;;;;;5096704;28;20445;-83
2021/10/17 12:50:22;;;;;;;26.93;25.10;;;;;;;;;;5096967;28;20418;-84
2021/10/17 12:52:59;;;;;;;28.07;25.97;;;;;;;;;;5095992;28;20426;-83
2021/10/17 12:55:31;;;;;;;27.47;25.60;;;;;;;;;;5096563;28;21082;-84
2021/10/17 12:58:06;;;;;;;26.87;25.07;;;;;;;;;;5096329;28;20466;-84
2021/10/17 13:00:33;;;;;;;28.10;25.70;;;;;;;;;;5095645;28;20459;-83
2021/10/17 13:03:14;;;;;;;28.60;26.53;;;;;;;;;;5096895;28;20908;-83
2021/10/17 13:05:52;;;;;;;27.23;25.10;;;;;;;;;;5095749;28;20421;-83
2021/10/17 13:08:24;;;;;;;28.60;26.50;;;;;;;;;;5096523;28;20437;-83
2021/10/17 13:10:51;;;;;;;28.30;26.10;;;;;;;;;;5095684;28;20419;-83
2021/10/17 13:13:20;;;;;;;27.93;25.83;;;;;;;;;;5095558;28;20846;-83
2021/10/17 13:15:51;;;;;;;27.70;25.50;;;;;;;;;;5096888;28;20508;-83
2021/10/17 13:18:19;;;;;;;28.53;26.30;;;;;;;;;;5096313;28;20912;-84
2021/10/17 13:20:46;;;;;;;27.77;25.57;;;;;;;;;;5095019;28;20540;-83
2021/10/17 13:23:17;;;;;;;29.67;27.37;;;;;;;;;;5096878;28;20414;-83
2021/10/17 13:25:48;;;;;;;28.23;26.03;;;;;;;;;;5096224;28;20395;-85
2021/10/17 13:28:16;;;;;;;29.27;27.17;;;;;;;;;;5094797;28;20539;-83
2021/10/17 13:30:43;;;;;;;29.40;27.30;;;;;;;;;;5096360;28;20435;-84
2021/10/17 13:33:11;;;;;;;29.17;26.87;;;;;;;;;;5096534;28;20407;-84
2021/10/17 13:35:39;;;;;;;29.10;26.77;;;;;;;;;;5096287;28;20450;-84
2021/10/17 13:38:08;;;;;;;29.83;27.60;;;;;;;;;;5095351;28;20878;-84
2021/10/17 13:40:36;;;;;;;28.10;26.13;;;;;;;;;;5095810;28;20748;-83
2021/10/17 13:43:06;;;;;;;28.30;26.00;;;;;;;;;;5095086;28;20878;-83
2021/10/17 13:45:34;;;;;;;28.80;26.77;;;;;;;;;;5094631;28;20453;-83
2021/10/17 13:48:02;;;;;;;28.13;26.30;;;;;;;;;;5096042;28;20807;-83
2021/10/17 13:50:30;;;;;;;28.53;26.33;;;;;;;;;;5094985;28;20495;-83
2021/10/17 13:52:58;;;;;;;29.30;27.40;;;;;;;;;;5095880;28;20443;-83
2021/10/17 13:55:25;;;;;;;29.90;27.37;;;;;;;;;;5095644;28;20458;-83
2021/10/17 13:57:52;;;;;;;26.97;25.17;;;;;;;;;;5094115;28;20501;-83
2021/10/17 14:00:24;;;;;;;28.23;26.10;;;;;;;;;;5095757;28;20425;-83
2021/10/17 14:02:53;;;;;;;28.83;26.70;;;;;;;;;;5095984;28;20801;-84
2021/10/17 14:05:21;;;;;;;27.53;25.60;;;;;;;;;;5095708;28;20429;-83
2021/10/17 14:07:49;;;;;;;28.07;26.00;;;;;;;;;;5095699;28;20415;-84
2021/10/17 14:10:16;;;;;;;28.20;26.00;;;;;;;;;;5095554;28;20441;-83
2021/10/17 14:12:44;;;;;;;27.77;25.77;;;;;;;;;;5095641;28;20415;-84
2021/10/17 14:15:11;;;;;;;28.87;26.63;;;;;;;;;;5095860;28;20416;-83
2021/10/17 14:17:40;;;;;;;26.57;24.80;;;;;;;;;;5094649;28;20444;-83
2021/10/17 14:20:09;;;;;;;28.73;26.03;;;;;;;;;;5095378;28;20415;-83
2021/10/17 14:22:37;;;;;;;28.23;26.43;;;;;;;;;;5095398;28;20953;-83
2021/10/17 14:25:05;;;;;;;27.27;25.47;;;;;;;;;;5095091;28;20910;-83